Granton, WI (54436)

10:31 AM CDT on August 30, 2016 (GMT -0500)
Marshfield Municipal | | Change Station

Elev 1276 ft 44.64 °N, 90.19 °W | Updated 37 minutes ago

Clear
Clear
76 °F
Feels Like 76 °F
N
5
Wind Variable Wind from NNW

Today
High -- | Low -- °F
--% Chance of Precip.
Yesterday
High -- | Low -- °F
Precip. -- in
Pressure 30.14 in
Visibility 10.0 miles
Clouds Clear
Dew Point 61 °F
Humidity 60%
Rainfall 0.00 in
Snow Depth Not available.
6:22 AM 7:40 PM
Waning Crescent, 3% visible
METAR KMFI 301454Z AUTO 33004KT 10SM CLR 24/16 A3016 RMK AO2 SLP207 T02440161 50004
Pressure 30.14 in
Visibility 10.0 miles
Clouds Clear
Dew Point 61 °F
Humidity 60%
Rainfall 0.00 in
Snow Depth Not available.
6:22 AM 7:40 PM
Waning Crescent, 3% visible
METAR KMFI 301454Z AUTO 33004KT 10SM CLR 24/16 A3016 RMK AO2 SLP207 T02440161 50004

10-Day Weather Forecast

Almanac

Astronomy

Aug. 30, 2016 Rise Set
Actual Time
Civil Twilight
Nautical Twilight
Astronomical Twilight
Moon
Length of Visible Light
Length of Day
Tomorrow will be .
, % of the Moon is Illuminated

Today's Extremes

State Highs State Lows

Community

WunderPhotos

Upload Photos

1,935,852 photos uploaded!

WunderBlog® & News

Nearby

Air Quality

  Air Quality AQ Index Pollutant
Not available.

Snow Depth

Station Depth Elevation

Earthquake Activity

City Distance Mag. Time & Date
Minimum magnitude displayed is 2.5.

Coastal Water Temperatures

Place Temperature

Stations

Nearby Weather Stations

Station Location Temp. Windchill Dew Point Humidity Wind Precip. Elev Updated Type
                   

Watches & Warnings

There are currently no watches in effect.